Time;durP1;ratioP1;P1;durP2;ratioP2;P2;SDS_P1;SDS_P2;PMS_P1;PMS_P2;Temp;Humidity;BMP_temperature;BMP_pressure;BME280_temperature;BME280_humidity;BME280_pressure;Samples;Min_cycle;Max_cycle;Signal;HPM_P1;HPM_P2
2021/10/30 00:00:52;;;;;;;10.17;6.93;;;14.20;99.90;;;;;;5036474;28;20200;-84
2021/10/30 00:03:18;;;;;;;10.13;6.50;;;14.20;99.90;;;;;;5035534;28;20541;-84
2021/10/30 00:05:48;;;;;;;9.87;7.40;;;14.20;99.90;;;;;;5035673;28;20415;-83
2021/10/30 00:08:14;;;;;;;11.50;7.20;;;14.10;99.90;;;;;;5035848;28;20423;-85
2021/10/30 00:10:40;;;;;;;9.30;6.93;;;14.10;99.90;;;;;;5035875;28;20435;-84
2021/10/30 00:13:05;;;;;;;12.70;7.70;;;14.10;99.90;;;;;;5036546;28;20835;-84
2021/10/30 00:15:31;;;;;;;9.90;7.30;;;14.00;99.90;;;;;;5037119;28;20169;-85
2021/10/30 00:17:57;;;;;;;9.70;7.10;;;14.00;99.90;;;;;;5035370;28;20235;-84
2021/10/30 00:20:23;;;;;;;9.03;6.57;;;14.00;99.90;;;;;;5035144;28;20215;-83
2021/10/30 00:22:48;;;;;;;8.57;5.63;;;14.00;99.90;;;;;;5034049;28;20180;-84
2021/10/30 00:25:14;;;;;;;9.57;6.33;;;14.00;99.90;;;;;;5035281;28;20235;-84
2021/10/30 00:27:41;;;;;;;11.23;7.10;;;13.90;99.90;;;;;;5035079;28;20199;-84
2021/10/30 00:30:07;;;;;;;12.10;7.27;;;13.90;99.90;;;;;;5035930;28;20718;-83
2021/10/30 00:32:33;;;;;;;10.17;6.33;;;13.80;99.90;;;;;;5036285;28;20573;-84
2021/10/30 00:34:58;;;;;;;8.43;5.90;;;13.80;99.90;;;;;;5036005;28;20500;-84
2021/10/30 00:37:24;;;;;;;8.77;6.47;;;13.80;99.90;;;;;;5035980;28;20192;-85
2021/10/30 00:39:49;;;;;;;9.50;7.00;;;13.80;99.90;;;;;;5034279;28;20582;-84
2021/10/30 00:42:15;;;;;;;7.83;5.77;;;13.80;99.90;;;;;;5034024;28;20199;-84
2021/10/30 00:44:41;;;;;;;8.73;6.87;;;13.70;99.90;;;;;;5033697;28;20184;-83
2021/10/30 00:47:06;;;;;;;10.50;6.47;;;13.70;99.90;;;;;;5034562;28;20670;-84
2021/10/30 00:49:33;;;;;;;10.33;6.90;;;13.70;99.90;;;;;;5034499;28;20276;-84
2021/10/30 00:51:59;;;;;;;12.40;6.40;;;13.60;99.90;;;;;;5035210;28;20193;-83
2021/10/30 00:54:26;;;;;;;17.23;7.23;;;13.60;99.90;;;;;;5034303;28;20426;-85
2021/10/30 00:56:55;;;;;;;9.83;7.03;;;13.60;99.90;;;;;;5035164;28;20441;-82
2021/10/30 00:59:21;;;;;;;8.00;5.83;;;13.50;99.90;;;;;;5033689;28;20649;-83
2021/10/30 01:01:50;;;;;;;11.43;6.70;;;13.50;99.90;;;;;;5034567;28;20431;-83
2021/10/30 01:04:17;;;;;;;9.10;6.13;;;13.40;99.90;;;;;;5033515;28;20485;-85
2021/10/30 01:06:46;;;;;;;9.40;6.47;;;13.40;99.90;;;;;;5034979;28;20422;-85
2021/10/30 01:09:12;;;;;;;8.20;6.23;;;13.40;99.90;;;;;;5033592;28;20451;-84
2021/10/30 01:11:40;;;;;;;9.60;6.40;;;13.40;99.90;;;;;;5032987;28;20832;-84
2021/10/30 01:14:07;;;;;;;11.23;8.10;;;13.40;99.90;;;;;;5068298;23;20498;-83
2021/10/30 01:16:33;;;;;;;9.17;6.47;;;13.40;99.90;;;;;;5032739;28;20922;-83
2021/10/30 01:19:01;;;;;;;9.30;6.47;;;13.40;99.90;;;;;;5031498;28;20534;-82
2021/10/30 01:21:32;;;;;;;8.93;6.97;;;13.40;99.90;;;;;;5032633;28;20173;-83
2021/10/30 01:23:59;;;;;;;9.93;6.13;;;13.40;99.90;;;;;;5031072;28;20439;-83
2021/10/30 01:26:25;;;;;;;10.40;6.00;;;13.40;99.90;;;;;;5031217;28;20447;-82
2021/10/30 01:28:52;;;;;;;10.37;7.17;;;13.40;99.90;;;;;;5031269;28;20496;-83
2021/10/30 01:31:20;;;;;;;8.80;6.00;;;13.40;99.90;;;;;;5032612;28;20418;-83
2021/10/30 01:33:46;;;;;;;7.00;5.00;;;13.40;99.90;;;;;;5030669;28;20457;-83
2021/10/30 01:36:14;;;;;;;8.23;5.60;;;13.40;99.90;;;;;;5031268;28;20430;-83
2021/10/30 01:38:40;;;;;;;8.13;6.00;;;13.40;99.90;;;;;;5032312;28;20975;-83
2021/10/30 01:41:05;;;;;;;8.93;6.27;;;13.40;99.90;;;;;;5032333;28;20502;-83
2021/10/30 01:43:31;;;;;;;10.37;6.40;;;13.40;99.90;;;;;;5030523;28;20200;-82
2021/10/30 01:45:57;;;;;;;8.70;5.77;;;13.30;99.90;;;;;;5032349;28;20263;-84
2021/10/30 01:48:30;;;;;;;8.50;5.13;;;13.30;99.90;;;;;;5030869;28;20219;-83
2021/10/30 01:50:56;;;;;;;10.60;5.70;;;13.30;99.90;;;;;;5030930;28;20477;-83
2021/10/30 01:53:22;;;;;;;8.07;5.60;;;13.30;99.90;;;;;;5030510;28;20447;-83
2021/10/30 01:55:48;;;;;;;8.50;5.90;;;13.30;99.90;;;;;;5032319;28;20177;-82
2021/10/30 01:58:15;;;;;;;9.60;6.50;;;13.20;99.90;;;;;;5030850;28;20474;-83
2021/10/30 02:00:42;;;;;;;8.47;7.00;;;13.20;99.90;;;;;;5033640;28;20459;-85
2021/10/30 02:03:08;;;;;;;7.40;5.47;;;13.30;99.90;;;;;;5036565;28;20578;-84
2021/10/30 02:05:33;;;;;;;8.30;5.60;;;13.30;99.90;;;;;;5036364;28;20431;-84
2021/10/30 02:07:59;;;;;;;9.03;5.20;;;13.20;99.90;;;;;;5037494;28;20281;-82
2021/10/30 02:10:25;;;;;;;7.90;6.50;;;13.20;99.90;;;;;;5040400;28;20189;-85
2021/10/30 02:12:51;;;;;;;10.30;5.37;;;13.20;99.90;;;;;;5036277;28;20200;-85
2021/10/30 02:15:17;;;;;;;6.67;5.00;;;13.30;99.90;;;;;;5036402;28;20419;-85
2021/10/30 02:17:43;;;;;;;8.03;5.20;;;13.30;99.90;;;;;;5036135;28;20914;-84
2021/10/30 02:20:10;;;;;;;7.27;5.40;;;13.20;99.90;;;;;;5032950;28;20204;-83
2021/10/30 02:22:37;;;;;;;7.33;5.30;;;13.20;99.90;;;;;;5034308;28;20165;-85
2021/10/30 02:25:05;;;;;;;8.37;6.33;;;13.20;99.90;;;;;;5034907;28;20415;-84
2021/10/30 02:27:30;;;;;;;8.50;4.77;;;13.20;99.90;;;;;;5035818;28;20415;-84
2021/10/30 02:29:56;;;;;;;9.90;5.70;;;13.10;99.90;;;;;;5034477;28;20419;-85
2021/10/30 02:32:21;;;;;;;8.50;5.67;;;13.20;99.90;;;;;;5034542;28;20192;-84
2021/10/30 02:34:47;;;;;;;7.13;5.27;;;13.20;99.90;;;;;;5034065;28;20184;-84
2021/10/30 02:37:13;;;;;;;8.10;6.00;;;13.20;99.90;;;;;;5034247;28;20618;-83
2021/10/30 02:39:38;;;;;;;7.57;5.63;;;13.20;99.90;;;;;;5033446;28;20630;-83
2021/10/30 02:42:04;;;;;;;7.07;4.83;;;13.20;99.90;;;;;;5033697;28;20176;-84
2021/10/30 02:44:31;;;;;;;9.40;5.23;;;13.20;99.90;;;;;;5034864;28;20204;-85
2021/10/30 02:46:57;;;;;;;10.80;5.80;;;13.20;99.90;;;;;;5037806;28;20776;-82
2021/10/30 02:49:22;;;;;;;10.80;5.50;;;13.20;99.90;;;;;;5039030;28;20449;-84
2021/10/30 02:51:48;;;;;;;6.77;5.17;;;13.20;99.90;;;;;;5036451;28;20184;-84
2021/10/30 02:54:14;;;;;;;7.33;5.23;;;13.20;99.90;;;;;;5036812;28;20211;-83
2021/10/30 02:56:39;;;;;;;7.87;5.30;;;13.10;99.90;;;;;;5038509;28;20239;-83
2021/10/30 02:59:05;;;;;;;8.83;5.40;;;13.20;99.90;;;;;;5036936;28;20204;-84
2021/10/30 03:01:31;;;;;;;7.57;5.00;;;13.20;99.90;;;;;;5037045;28;20188;-84
2021/10/30 03:03:56;;;;;;;6.00;4.70;;;13.20;99.90;;;;;;5037553;28;20200;-84
2021/10/30 03:06:22;;;;;;;6.80;5.10;;;13.20;99.90;;;;;;5037191;28;20184;-85
2021/10/30 03:08:49;;;;;;;7.43;5.00;;;13.10;99.90;;;;;;5037163;28;20185;-84
2021/10/30 03:11:16;;;;;;;7.60;5.10;;;13.20;99.90;;;;;;5036698;28;21169;-84
2021/10/30 03:13:43;;;;;;;7.73;5.30;;;13.10;99.90;;;;;;5035508;28;20501;-83
2021/10/30 03:16:08;;;;;;;7.13;6.00;;;13.10;99.90;;;;;;5036514;28;20766;-84
2021/10/30 03:18:34;;;;;;;8.13;5.33;;;13.10;99.90;;;;;;5035891;28;20431;-83
2021/10/30 03:21:00;;;;;;;8.50;6.27;;;13.00;99.90;;;;;;5034829;28;20184;-82
2021/10/30 03:23:25;;;;;;;7.27;5.60;;;13.00;99.90;;;;;;5033333;28;20281;-83
2021/10/30 03:25:51;;;;;;;9.23;5.17;;;13.00;99.90;;;;;;5033505;28;20701;-83
2021/10/30 03:28:16;;;;;;;7.60;5.07;;;13.00;99.90;;;;;;5034801;28;20219;-83
2021/10/30 03:30:43;;;;;;;7.50;5.67;;;13.00;99.90;;;;;;5034733;28;20238;-83
2021/10/30 03:33:09;;;;;;;7.30;5.30;;;13.00;99.90;;;;;;5034262;28;20250;-83
2021/10/30 03:35:35;;;;;;;10.10;6.70;;;13.00;99.90;;;;;;5033502;28;20865;-83
2021/10/30 03:38:01;;;;;;;8.43;6.20;;;12.90;99.90;;;;;;5034495;28;20426;-83
2021/10/30 03:40:27;;;;;;;7.27;5.67;;;12.80;99.90;;;;;;5034405;28;20569;-83
2021/10/30 03:42:52;;;;;;;8.03;6.07;;;12.60;99.90;;;;;;5034052;28;20781;-82
2021/10/30 03:45:18;;;;;;;8.80;5.80;;;12.50;99.90;;;;;;5033208;28;20181;-82
2021/10/30 03:47:44;;;;;;;9.33;5.83;;;12.50;99.90;;;;;;5034349;28;20183;-83
2021/10/30 03:50:09;;;;;;;8.27;6.73;;;12.40;99.90;;;;;;5033182;28;20791;-83
2021/10/30 03:52:35;;;;;;;10.30;6.43;;;12.30;99.90;;;;;;5034115;28;20241;-82
2021/10/30 03:55:01;;;;;;;7.80;5.63;;;12.20;99.90;;;;;;5032848;28;20670;-83
2021/10/30 03:57:26;;;;;;;9.00;6.70;;;12.20;99.90;;;;;;5033105;28;20674;-83
2021/10/30 03:59:52;;;;;;;10.50;6.53;;;12.20;99.90;;;;;;5032830;28;20219;-83
2021/10/30 04:02:19;;;;;;;9.07;6.63;;;12.10;99.90;;;;;;5032706;28;20180;-83
2021/10/30 04:04:44;;;;;;;9.20;5.83;;;12.10;99.90;;;;;;5032635;28;20200;-83
2021/10/30 04:07:10;;;;;;;10.03;6.90;;;12.10;99.90;;;;;;5032907;28;20506;-83
2021/10/30 04:09:36;;;;;;;9.10;5.47;;;12.10;99.90;;;;;;5034041;28;20185;-83
2021/10/30 04:12:02;;;;;;;9.30;6.20;;;12.00;99.90;;;;;;5033732;28;20515;-84
2021/10/30 04:14:27;;;;;;;8.77;6.00;;;12.10;99.90;;;;;;5032234;28;20568;-83
2021/10/30 04:16:53;;;;;;;11.57;7.03;;;12.10;99.90;;;;;;5033856;28;20423;-82
2021/10/30 04:19:19;;;;;;;8.27;6.03;;;12.10;99.90;;;;;;5033848;28;20204;-84
2021/10/30 04:21:45;;;;;;;11.60;6.67;;;12.10;99.90;;;;;;5032524;28;20176;-84
2021/10/30 04:24:10;;;;;;;11.00;7.00;;;12.10;99.90;;;;;;5034115;28;20443;-85
2021/10/30 04:26:36;;;;;;;7.93;6.00;;;12.20;99.90;;;;;;5034858;28;20598;-83
2021/10/30 04:29:03;;;;;;;8.03;5.70;;;12.10;99.90;;;;;;5036137;28;20219;-83
2021/10/30 04:31:30;;;;;;;7.30;5.27;;;12.10;99.90;;;;;;5034103;28;20477;-83
2021/10/30 04:34:02;;;;;;;7.93;6.13;;;12.10;99.90;;;;;;5035308;28;20494;-85
2021/10/30 04:36:30;;;;;;;9.43;6.37;;;12.10;99.90;;;;;;5035529;28;20502;-83
2021/10/30 04:38:56;;;;;;;10.70;6.13;;;12.20;99.90;;;;;;5034180;28;21033;-83
2021/10/30 04:41:22;;;;;;;7.43;5.40;;;12.10;99.90;;;;;;5034216;28;20419;-84
2021/10/30 04:43:48;;;;;;;9.20;6.63;;;12.10;99.90;;;;;;5034768;28;20931;-83
2021/10/30 04:46:16;;;;;;;7.83;5.83;;;12.10;99.90;;;;;;5033099;28;20271;-83
2021/10/30 04:48:43;;;;;;;8.60;5.20;;;12.00;99.90;;;;;;5034922;28;20512;-83
2021/10/30 04:51:08;;;;;;;7.63;5.23;;;12.00;99.90;;;;;;5034887;28;20423;-83
2021/10/30 04:53:36;;;;;;;7.00;5.50;;;12.00;99.90;;;;;;5032523;28;20852;-84
2021/10/30 04:56:03;;;;;;;8.13;5.33;;;12.00;99.90;;;;;;5034532;28;20177;-82
2021/10/30 04:58:28;;;;;;;9.40;5.70;;;12.00;99.90;;;;;;5033938;28;20416;-83
2021/10/30 05:00:54;;;;;;;7.23;5.63;;;12.00;99.90;;;;;;5034504;28;20761;-84
2021/10/30 05:03:20;;;;;;;8.30;5.03;;;12.00;99.90;;;;;;5032434;28;20204;-83
2021/10/30 05:05:45;;;;;;;8.40;5.80;;;12.00;99.90;;;;;;5034394;28;20647;-83
2021/10/30 05:08:11;;;;;;;7.97;5.30;;;12.00;99.90;;;;;;5033909;28;20185;-83
2021/10/30 05:10:37;;;;;;;6.83;5.03;;;12.00;99.90;;;;;;5032378;28;20193;-83
2021/10/30 05:13:04;;;;;;;7.73;6.30;;;12.00;99.90;;;;;;5033343;28;20227;-85
2021/10/30 05:15:29;;;;;;;6.97;4.73;;;12.00;99.90;;;;;;5032318;28;20426;-83
2021/10/30 05:17:55;;;;;;;7.47;5.27;;;12.10;99.90;;;;;;5032502;28;20790;-84
2021/10/30 05:20:21;;;;;;;9.20;5.03;;;12.10;99.90;;;;;;5031938;28;20219;-84
2021/10/30 05:22:46;;;;;;;8.00;5.67;;;12.20;99.90;;;;;;5033484;28;20192;-85
2021/10/30 05:25:12;;;;;;;8.80;5.00;;;12.20;99.90;;;;;;5033275;28;20599;-83
2021/10/30 05:27:37;;;;;;;7.63;4.90;;;12.20;99.90;;;;;;5032113;28;20184;-83
2021/10/30 05:30:04;;;;;;;7.40;5.27;;;12.20;99.90;;;;;;5033679;28;20243;-83
2021/10/30 05:32:29;;;;;;;8.60;5.10;;;12.20;99.90;;;;;;5033786;28;20230;-83
2021/10/30 05:34:55;;;;;;;7.90;4.97;;;12.30;99.90;;;;;;5031686;28;20423;-83
2021/10/30 05:37:21;;;;;;;7.33;4.77;;;12.30;99.90;;;;;;5033429;28;20606;-83
2021/10/30 05:39:46;;;;;;;6.83;4.20;;;12.30;99.90;;;;;;5031593;28;20219;-84
2021/10/30 05:42:13;;;;;;;9.37;5.20;;;12.30;99.90;;;;;;5032888;28;20180;-83
2021/10/30 05:44:39;;;;;;;7.43;5.00;;;12.30;99.90;;;;;;5032032;28;20211;-85
2021/10/30 05:47:09;;;;;;;7.30;5.23;;;12.30;99.90;;;;;;5032976;28;20420;-83
2021/10/30 05:49:38;;;;;;;7.80;4.57;;;12.30;99.90;;;;;;5031705;28;20480;-85
2021/10/30 05:52:04;;;;;;;7.30;4.90;;;12.40;99.90;;;;;;5031118;28;20435;-84
2021/10/30 05:54:30;;;;;;;7.40;5.47;;;12.40;99.90;;;;;;5032800;28;20450;-84
2021/10/30 05:56:55;;;;;;;9.80;5.80;;;12.40;99.90;;;;;;5032681;28;21104;-83
2021/10/30 05:59:21;;;;;;;6.73;4.90;;;12.40;99.90;;;;;;5032940;28;20200;-83
2021/10/30 06:01:46;;;;;;;7.47;4.40;;;12.40;99.90;;;;;;5032699;28;20215;-83
2021/10/30 06:04:12;;;;;;;6.50;4.43;;;12.40;99.90;;;;;;5032340;28;20204;-84
2021/10/30 06:06:37;;;;;;;8.50;5.67;;;12.40;99.90;;;;;;5032716;28;20796;-83
2021/10/30 06:09:04;;;;;;;7.07;4.80;;;12.50;99.90;;;;;;5032617;28;20208;-83
2021/10/30 06:11:29;;;;;;;5.63;4.40;;;12.50;99.90;;;;;;5032738;28;20305;-83
2021/10/30 06:13:55;;;;;;;6.53;4.37;;;12.50;99.90;;;;;;5031580;28;20463;-83
2021/10/30 06:16:21;;;;;;;5.33;4.30;;;12.50;99.90;;;;;;5032039;28;20711;-82
2021/10/30 06:18:47;;;;;;;7.57;5.10;;;12.50;99.90;;;;;;5030522;28;20189;-83
2021/10/30 06:21:12;;;;;;;6.17;4.60;;;12.60;99.90;;;;;;5033173;28;20417;-83
2021/10/30 06:23:38;;;;;;;5.13;4.30;;;12.60;99.90;;;;;;5035619;28;20199;-83
2021/10/30 06:26:04;;;;;;;6.90;4.77;;;12.70;99.90;;;;;;5034688;28;20555;-83
2021/10/30 06:28:29;;;;;;;7.47;4.40;;;12.70;99.90;;;;;;5035922;28;20180;-83
2021/10/30 06:30:55;;;;;;;5.80;4.83;;;12.70;99.90;;;;;;5035812;28;20176;-82
2021/10/30 06:33:20;;;;;;;6.00;4.63;;;12.70;99.90;;;;;;5035370;28;20196;-83
2021/10/30 06:35:46;;;;;;;6.70;5.17;;;12.80;99.90;;;;;;5035798;28;20175;-83
2021/10/30 06:38:12;;;;;;;6.47;4.43;;;12.80;99.90;;;;;;5034366;28;20182;-83
2021/10/30 06:40:38;;;;;;;7.37;4.20;;;12.80;99.90;;;;;;5035668;28;20303;-83
2021/10/30 06:43:04;;;;;;;6.47;4.43;;;12.90;99.90;;;;;;5035381;28;20839;-83
2021/10/30 06:45:30;;;;;;;6.23;4.40;;;12.90;99.90;;;;;;5035814;28;20461;-83
2021/10/30 06:47:56;;;;;;;5.93;4.53;;;12.90;99.90;;;;;;5036286;28;20218;-84
2021/10/30 06:50:22;;;;;;;5.67;4.10;;;12.90;99.90;;;;;;5037752;28;20554;-83
2021/10/30 06:52:51;;;;;;;7.30;4.53;;;12.90;99.90;;;;;;5037674;28;20462;-81
2021/10/30 06:55:16;;;;;;;6.17;5.27;;;12.90;99.90;;;;;;5037969;28;20434;-84
2021/10/30 06:57:42;;;;;;;8.27;5.40;;;12.90;99.90;;;;;;5035809;28;20422;-83
2021/10/30 07:00:09;;;;;;;7.60;5.43;;;12.90;99.90;;;;;;5035450;28;20471;-82
2021/10/30 07:02:37;;;;;;;7.73;5.33;;;12.90;99.90;;;;;;5034915;28;20653;-83
2021/10/30 07:05:04;;;;;;;7.30;5.07;;;12.90;99.90;;;;;;5035142;28;20502;-83
2021/10/30 07:07:29;;;;;;;7.33;4.77;;;12.90;99.90;;;;;;5035248;28;21018;-84
2021/10/30 07:09:59;;;;;;;6.17;4.70;;;13.00;99.90;;;;;;5033826;28;20430;-84
2021/10/30 07:12:30;;;;;;;9.70;5.67;;;13.00;99.90;;;;;;5034879;28;20168;-83
2021/10/30 07:14:56;;;;;;;9.25;5.45;;;13.00;99.90;;;;;;5013075;23;1228530;-79
2021/10/30 07:17:23;;;;;;;7.90;5.90;;;13.00;99.90;;;;;;5019625;28;20181;-79
2021/10/30 07:19:49;;;;;;;6.03;5.03;;;13.00;99.90;;;;;;5018961;28;20486;-79
2021/10/30 07:22:16;;;;;;;7.30;4.80;;;13.10;99.90;;;;;;5019745;28;20426;-80
2021/10/30 07:24:43;;;;;;;7.10;5.07;;;13.10;99.90;;;;;;5019334;28;20512;-80
2021/10/30 07:27:16;;;;;;;8.10;5.40;;;13.10;99.90;;;;;;5017374;28;20416;-81
2021/10/30 07:29:44;;;;;;;9.83;4.53;;;13.10;99.90;;;;;;5017270;28;20446;-80
2021/10/30 07:32:10;;;;;;;5.97;4.47;;;13.10;99.90;;;;;;5017706;28;20431;-81
2021/10/30 07:34:36;;;;;;;9.83;5.00;;;13.10;99.90;;;;;;5017371;28;20813;-80
2021/10/30 07:37:02;;;;;;;9.40;6.13;;;13.10;99.90;;;;;;5016601;28;20412;-81
2021/10/30 07:39:27;;;;;;;5.80;4.87;;;13.10;99.90;;;;;;5018104;28;20223;-80
2021/10/30 07:41:53;;;;;;;7.80;4.90;;;13.00;99.90;;;;;;5019177;28;20428;-81
2021/10/30 07:44:19;;;;;;;6.90;5.40;;;13.00;99.90;;;;;;5019196;28;20187;-80
2021/10/30 07:46:45;;;;;;;9.87;5.40;;;13.00;99.90;;;;;;5019610;28;20235;-79
2021/10/30 07:49:10;;;;;;;7.60;5.67;;;13.00;99.90;;;;;;5019579;28;20204;-80
2021/10/30 07:51:36;;;;;;;8.50;5.40;;;13.10;99.90;;;;;;5014239;28;20184;-80
2021/10/30 07:54:02;;;;;;;6.47;5.37;;;13.10;99.90;;;;;;5016989;28;20181;-79
2021/10/30 07:56:28;;;;;;;8.77;6.00;;;13.00;99.90;;;;;;5017638;28;20201;-80
2021/10/30 07:58:54;;;;;;;8.30;4.87;;;13.10;99.90;;;;;;5018115;28;20208;-80
2021/10/30 08:01:20;;;;;;;7.10;5.83;;;13.20;99.90;;;;;;5017440;28;20797;-81
2021/10/30 08:03:46;;;;;;;9.30;5.73;;;13.20;99.90;;;;;;5017370;28;20181;-80
2021/10/30 08:06:12;;;;;;;8.97;6.07;;;13.10;99.90;;;;;;5016694;28;20206;-80
2021/10/30 08:08:38;;;;;;;7.27;5.37;;;13.20;99.90;;;;;;5018154;28;20427;-80
2021/10/30 08:11:03;;;;;;;7.60;5.30;;;13.10;99.90;;;;;;5017811;28;20239;-80
2021/10/30 08:13:29;;;;;;;9.73;5.90;;;13.10;99.90;;;;;;5016890;28;20724;-80
2021/10/30 08:15:55;;;;;;;8.70;5.77;;;13.10;99.90;;;;;;5017142;28;20220;-80
2021/10/30 08:18:22;;;;;;;6.37;5.33;;;13.00;99.90;;;;;;5017311;28;20174;-80
2021/10/30 08:20:48;;;;;;;8.27;5.63;;;13.00;99.90;;;;;;5017138;28;20505;-80
2021/10/30 08:23:14;;;;;;;7.40;5.40;;;12.90;99.90;;;;;;5016376;28;20495;-80
2021/10/30 08:25:40;;;;;;;8.77;5.90;;;12.90;99.90;;;;;;5015587;28;20204;-81
2021/10/30 08:28:06;;;;;;;9.00;5.87;;;12.90;99.90;;;;;;5016100;28;20303;-81
2021/10/30 08:30:31;;;;;;;7.37;5.60;;;12.80;99.90;;;;;;5016609;28;20448;-80
2021/10/30 08:32:57;;;;;;;6.87;4.80;;;12.70;99.90;;;;;;5015712;28;20181;-81
2021/10/30 08:35:23;;;;;;;10.60;5.83;;;12.70;99.90;;;;;;5015944;28;20208;-81
2021/10/30 08:37:49;;;;;;;9.50;6.50;;;12.70;99.90;;;;;;5015306;28;20433;-80
2021/10/30 08:40:17;;;;;;;9.57;5.93;;;12.70;99.90;;;;;;5015483;28;20219;-80
2021/10/30 08:42:50;;;;;;;11.03;5.70;;;12.60;99.90;;;;;;5015264;28;20420;-80
2021/10/30 08:45:17;;;;;;;8.83;5.67;;;12.70;99.90;;;;;;5015375;28;20443;-80
2021/10/30 08:47:45;;;;;;;7.30;5.60;;;12.70;99.90;;;;;;5016296;28;20412;-80
2021/10/30 08:50:11;;;;;;;8.10;5.43;;;12.70;99.90;;;;;;5015577;28;20482;-80
2021/10/30 08:52:37;;;;;;;9.07;5.77;;;12.80;99.90;;;;;;5015152;28;20412;-80
2021/10/30 08:55:06;;;;;;;6.47;4.27;;;12.80;99.90;;;;;;5014674;28;20816;-81
2021/10/30 08:57:33;;;;;;;7.03;4.20;;;12.90;99.90;;;;;;5014699;28;20458;-81
2021/10/30 09:00:17;;;;;;;8.30;4.57;;;12.90;99.90;;;;;;5014499;28;20529;-80
2021/10/30 09:02:43;;;;;;;5.70;3.73;;;13.00;99.90;;;;;;5014201;28;20455;-81
2021/10/30 09:05:18;;;;;;;7.07;4.20;;;13.10;99.90;;;;;;5014175;28;20949;-80
2021/10/30 09:07:45;;;;;;;5.83;3.17;;;13.10;99.90;;;;;;5015193;28;20423;-80
2021/10/30 09:10:14;;;;;;;7.40;3.63;;;13.20;99.90;;;;;;5015185;28;20939;-82
2021/10/30 09:12:47;;;;;;;6.33;3.87;;;13.30;99.90;;;;;;5016762;28;20444;-81
2021/10/30 09:15:14;;;;;;;6.17;4.50;;;13.40;99.90;;;;;;5015848;28;20456;-83
2021/10/30 09:17:41;;;;;;;5.23;4.20;;;13.40;99.90;;;;;;5015654;28;20428;-82
2021/10/30 09:20:08;;;;;;;7.37;4.80;;;13.50;99.90;;;;;;5015396;28;20463;-81
2021/10/30 09:22:34;;;;;;;6.90;5.37;;;13.50;99.90;;;;;;5014833;28;20482;-82
2021/10/30 09:25:06;;;;;;;6.07;4.87;;;13.50;99.90;;;;;;5015217;28;21042;-82
2021/10/30 09:27:51;;;;;;;8.13;5.13;;;13.50;99.90;;;;;;5012751;28;20428;-84
2021/10/30 09:30:19;;;;;;;8.00;5.50;;;13.50;99.90;;;;;;5012516;28;20431;-81
2021/10/30 09:33:01;;;;;;;9.17;5.50;;;13.50;99.90;;;;;;5014384;28;20420;-81
2021/10/30 09:35:30;;;;;;;6.80;5.00;;;13.50;99.90;;;;;;5013369;28;20531;-82
2021/10/30 09:37:56;;;;;;;8.73;5.27;;;13.50;99.90;;;;;;5014781;28;20434;-83
2021/10/30 09:40:25;;;;;;;8.10;5.00;;;13.50;99.90;;;;;;5013778;28;20475;-80
2021/10/30 09:43:19;;;;;;;5.93;4.47;;;13.50;99.90;;;;;;5013929;28;20416;-82
2021/10/30 09:45:48;;;;;;;7.07;4.93;;;13.40;99.90;;;;;;5010827;28;20498;-81
2021/10/30 09:48:23;;;;;;;6.63;4.93;;;13.40;99.90;;;;;;5013781;28;20502;-80
2021/10/30 09:50:54;;;;;;;9.07;5.83;;;13.40;99.90;;;;;;5013450;28;20788;-81
2021/10/30 09:53:26;;;;;;;7.30;5.03;;;13.40;99.90;;;;;;5013869;28;20490;-80
2021/10/30 09:56:01;;;;;;;5.90;4.70;;;13.40;99.90;;;;;;5009719;28;20486;-81
2021/10/30 09:58:49;;;;;;;9.33;6.43;;;13.40;99.90;;;;;;5010900;28;20563;-80
2021/10/30 10:01:18;;;;;;;8.10;5.70;;;13.40;99.90;;;;;;5005728;28;20831;-82
2021/10/30 10:03:49;;;;;;;7.73;5.37;;;13.40;99.90;;;;;;5013625;28;20405;-80
2021/10/30 10:06:22;;;;;;;8.97;5.80;;;13.40;99.90;;;;;;5013458;28;20594;-80
2021/10/30 10:08:48;;;;;;;8.40;6.37;;;13.40;99.90;;;;;;5013248;28;20415;-81
2021/10/30 10:11:17;;;;;;;10.17;5.83;;;13.40;99.90;;;;;;5010157;28;20416;-81
2021/10/30 10:13:47;;;;;;;9.67;6.30;;;13.40;99.90;;;;;;5002567;28;20417;-81
2021/10/30 10:16:24;;;;;;;8.37;5.80;;;13.50;99.90;;;;;;4999558;28;20556;-81
2021/10/30 10:18:55;;;;;;;9.63;6.40;;;13.40;99.90;;;;;;5009751;28;20459;-82
2021/10/30 10:21:24;;;;;;;7.30;6.17;;;13.40;99.90;;;;;;5009052;28;20515;-80
2021/10/30 10:23:50;;;;;;;7.97;5.57;;;13.40;99.90;;;;;;5007524;28;20514;-80
2021/10/30 10:26:16;;;;;;;9.20;5.60;;;13.40;99.90;;;;;;5009686;28;20530;-80
2021/10/30 10:28:43;;;;;;;10.00;5.53;;;13.40;99.90;;;;;;5009098;28;20417;-81
2021/10/30 10:31:20;;;;;;;7.93;5.30;;;13.40;99.90;;;;;;5012568;28;20424;-81
2021/10/30 10:34:15;;;;;;;8.00;6.07;;;13.40;99.90;;;;;;5012899;28;20495;-81
2021/10/30 10:36:42;;;;;;;8.33;6.20;;;13.40;99.90;;;;;;5012931;28;20416;-81
2021/10/30 10:39:12;;;;;;;9.50;6.20;;;13.50;99.90;;;;;;5013156;28;20459;-80
2021/10/30 10:41:40;;;;;;;7.57;5.90;;;13.50;99.90;;;;;;5010838;28;20455;-79
2021/10/30 10:44:27;;;;;;;7.90;5.97;;;13.50;99.90;;;;;;5010183;28;20543;-79
2021/10/30 10:47:00;;;;;;;9.23;6.43;;;13.50;99.90;;;;;;5010633;28;20466;-78
2021/10/30 10:52:18;;;;;;;9.83;6.80;;;13.40;99.90;;;;;;5012291;28;20455;-80
2021/10/30 10:55:03;;;;;;;12.03;6.33;;;13.30;99.90;;;;;;5010869;28;20818;-80
2021/10/30 10:57:30;;;;;;;8.50;6.50;;;13.20;99.90;;;;;;5010573;28;20408;-80
2021/10/30 11:00:15;;;;;;;9.00;6.90;;;13.10;99.90;;;;;;5010954;28;20467;-80
2021/10/30 11:02:55;;;;;;;9.77;6.37;;;13.00;99.90;;;;;;5010592;28;20474;-80
2021/10/30 11:05:21;;;;;;;9.30;6.87;;;13.00;99.90;;;;;;5010897;28;20807;-80
2021/10/30 11:07:49;;;;;;;8.70;6.60;;;13.00;99.90;;;;;;5018128;28;20525;-82
2021/10/30 11:10:25;;;;;;;8.37;6.37;;;13.00;99.90;;;;;;5017339;28;20415;-81
2021/10/30 11:13:00;;;;;;;9.47;6.70;;;13.00;99.90;;;;;;5017593;28;20426;-81
2021/10/30 11:15:55;;;;;;;7.50;6.10;;;12.90;99.90;;;;;;5016607;28;20469;-81
2021/10/30 11:21:14;;;;;;;7.70;6.17;;;12.90;99.90;;;;;;5018275;28;20550;-81
2021/10/30 11:23:48;;;;;;;11.60;6.87;;;12.90;99.90;;;;;;5020152;28;20505;-81
2021/10/30 11:26:27;;;;;;;8.30;6.63;;;12.80;99.90;;;;;;5017935;28;21292;-81
2021/10/30 11:29:02;;;;;;;8.60;6.17;;;12.80;99.90;;;;;;5018328;28;20408;-81
2021/10/30 11:31:30;;;;;;;8.77;6.43;;;12.90;99.90;;;;;;5018279;28;20410;-81
2021/10/30 11:34:00;;;;;;;9.50;6.00;;;12.90;99.90;;;;;;5018737;28;20559;-80
2021/10/30 11:36:27;;;;;;;10.50;5.90;;;12.90;99.90;;;;;;5017707;28;20440;-80
2021/10/30 11:38:55;;;;;;;8.97;6.83;;;12.90;99.90;;;;;;5017288;28;20416;-80
2021/10/30 11:41:24;;;;;;;10.60;6.07;;;12.90;99.90;;;;;;5017496;28;20423;-81
2021/10/30 11:43:56;;;;;;;8.27;5.70;;;12.90;99.90;;;;;;5017976;28;20455;-80
2021/10/30 11:46:22;;;;;;;8.20;5.90;;;13.00;99.90;;;;;;5017661;28;20439;-80
2021/10/30 11:48:56;;;;;;;8.90;5.90;;;13.00;99.90;;;;;;5017131;28;20420;-81
2021/10/30 11:51:27;;;;;;;9.87;6.80;;;13.10;99.90;;;;;;5017932;28;20177;-81
2021/10/30 11:53:53;;;;;;;8.90;5.77;;;13.20;99.90;;;;;;5017525;28;20427;-80
2021/10/30 11:56:25;;;;;;;7.07;5.00;;;13.20;99.90;;;;;;5017055;28;20451;-81
2021/10/30 11:58:59;;;;;;;13.03;5.57;;;13.30;99.90;;;;;;5017677;28;20938;-80
2021/10/30 12:01:29;;;;;;;7.83;5.70;;;13.30;99.90;;;;;;5017730;28;20543;-80
2021/10/30 12:04:07;;;;;;;8.67;4.87;;;13.40;99.90;;;;;;5017196;28;20417;-81
2021/10/30 12:06:38;;;;;;;7.40;4.77;;;13.40;99.90;;;;;;5016821;28;20447;-81
2021/10/30 12:09:32;;;;;;;6.80;4.73;;;13.50;99.90;;;;;;5016960;28;20404;-80
2021/10/30 12:12:03;;;;;;;7.20;4.53;;;13.50;99.90;;;;;;5016536;28;20420;-80
2021/10/30 12:14:38;;;;;;;6.83;4.53;;;13.50;99.90;;;;;;5016962;28;20408;-80
2021/10/30 12:17:07;;;;;;;5.07;3.90;;;13.60;99.90;;;;;;5016204;28;20446;-80
2021/10/30 12:19:34;;;;;;;8.47;5.33;;;13.70;99.90;;;;;;5014826;28;20887;-80
2021/10/30 12:22:26;;;;;;;5.60;4.13;;;13.70;99.90;;;;;;5016293;28;20416;-80
2021/10/30 12:25:08;;;;;;;5.17;3.90;;;13.80;99.90;;;;;;5016080;28;20444;-79
2021/10/30 12:27:52;;;;;;;5.50;3.37;;;13.80;99.90;;;;;;5016410;28;20927;-79
2021/10/30 12:30:23;;;;;;;5.30;3.77;;;13.90;99.90;;;;;;5016041;28;20420;-80
2021/10/30 12:32:50;;;;;;;5.40;3.73;;;14.00;99.90;;;;;;5015977;28;20412;-80
2021/10/30 12:35:23;;;;;;;4.50;3.03;;;14.10;99.90;;;;;;5015750;28;20542;-79
2021/10/30 12:37:50;;;;;;;4.70;2.63;;;14.10;99.90;;;;;;5015718;28;20424;-80
2021/10/30 12:40:21;;;;;;;6.37;3.47;;;14.20;99.90;;;;;;5015850;28;20567;-80
2021/10/30 12:43:07;;;;;;;6.30;3.90;;;14.30;99.90;;;;;;5015788;28;20436;-80
2021/10/30 12:45:47;;;;;;;5.70;3.00;;;14.40;99.90;;;;;;5016245;28;20432;-79
2021/10/30 12:48:15;;;;;;;6.10;3.10;;;14.50;99.90;;;;;;5015954;28;20416;-80
2021/10/30 12:50:41;;;;;;;4.60;3.00;;;14.60;99.90;;;;;;5015834;28;20443;-80
2021/10/30 12:53:22;;;;;;;5.70;3.23;;;14.60;99.90;;;;;;5016675;28;20431;-81
2021/10/30 12:56:19;;;;;;;5.87;3.30;;;14.70;99.90;;;;;;5016846;28;20463;-79